createdAt,value
2023-02-23T00:02:23.011Z,21.67
2023-02-23T00:04:51.439Z,22.73
2023-02-23T00:07:21.072Z,22.07
2023-02-23T00:09:51.041Z,21.90
2023-02-23T00:12:20.952Z,22.17
2023-02-23T00:14:50.841Z,22.87
2023-02-23T00:17:19.026Z,21.23
2023-02-23T00:19:49.582Z,21.13
2023-02-23T00:22:18.777Z,21.03
2023-02-23T00:24:48.274Z,21.77
2023-02-23T00:27:18.806Z,21.77
2023-02-23T00:29:49.793Z,21.60
2023-02-23T00:32:21.276Z,22.53
2023-02-23T00:34:50.751Z,21.07
2023-02-23T00:37:19.672Z,21.30
2023-02-23T00:39:48.299Z,20.80
2023-02-23T00:42:16.802Z,22.00
2023-02-23T00:44:47.774Z,20.80
2023-02-23T00:47:16.224Z,21.23
2023-02-23T00:49:46.408Z,21.17
2023-02-23T00:52:15.847Z,21.60
2023-02-23T00:54:44.635Z,22.10
2023-02-23T00:57:12.744Z,21.87
2023-02-23T00:59:41.405Z,21.80
2023-02-23T01:02:09.808Z,22.40
2023-02-23T01:04:38.438Z,21.67
2023-02-23T01:07:08.334Z,21.53
2023-02-23T01:09:36.793Z,20.87
2023-02-23T01:12:07.694Z,22.20
2023-02-23T01:14:37.829Z,22.43
2023-02-23T01:17:06.109Z,22.17
2023-02-23T01:19:34.343Z,22.10
2023-02-23T01:22:02.948Z,21.90
2023-02-23T01:24:32.630Z,22.37
2023-02-23T01:27:00.841Z,23.27
2023-02-23T01:29:29.334Z,22.47
2023-02-23T01:31:57.783Z,21.63
2023-02-23T01:34:26.325Z,20.87
2023-02-23T01:36:54.491Z,20.17
2023-02-23T01:39:23.628Z,21.37
2023-02-23T01:41:54.371Z,21.90
2023-02-23T01:44:59.813Z,21.20
2023-02-23T01:47:28.225Z,22.00
2023-02-23T01:49:56.665Z,21.23
2023-02-23T01:52:24.781Z,21.30
2023-02-23T01:54:57.046Z,21.03
2023-02-23T01:57:27.339Z,20.63
2023-02-23T01:59:56.416Z,22.13
2023-02-23T02:02:34.057Z,21.30
2023-02-23T02:05:05.753Z,22.20
2023-02-23T02:07:36.543Z,20.80
2023-02-23T02:10:33.865Z,21.27
2023-02-23T02:13:06.096Z,22.67
2023-02-23T02:15:40.948Z,20.43
2023-02-23T02:18:23.608Z,21.70
2023-02-23T02:21:26.806Z,21.63
2023-02-23T02:24:31.107Z,20.93
2023-02-23T02:27:18.322Z,21.47
2023-02-23T02:30:29.145Z,22.73
2023-02-23T02:33:32.276Z,21.90
2023-02-23T02:36:35.303Z,22.30
2023-02-23T02:39:17.619Z,21.80
2023-02-23T02:41:53.786Z,21.57
2023-02-23T02:44:31.584Z,21.77
2023-02-23T02:47:08.231Z,21.60
2023-02-23T02:49:46.407Z,21.20
2023-02-23T02:52:20.760Z,21.43
2023-02-23T02:54:54.581Z,21.63
2023-02-23T02:57:27.124Z,21.27
2023-02-23T03:00:13.759Z,21.67
2023-02-23T03:03:00.302Z,20.20
2023-02-23T03:05:49.348Z,19.60
2023-02-23T03:08:40.477Z,21.17
2023-02-23T03:11:29.847Z,19.87
2023-02-23T03:14:28.278Z,19.83
2023-02-23T03:17:21.718Z,18.93
2023-02-23T03:20:13.359Z,21.00
2023-02-23T03:23:08.765Z,19.67
2023-02-23T03:26:07.149Z,21.10
2023-02-23T03:29:03.718Z,21.20
2023-02-23T03:31:58.839Z,21.23
2023-02-23T03:34:49.668Z,21.50
2023-02-23T03:37:42.010Z,21.50
2023-02-23T03:40:35.279Z,19.77
2023-02-23T03:43:24.398Z,20.60
2023-02-23T03:46:15.012Z,20.80
2023-02-23T03:49:04.415Z,21.27
2023-02-23T03:51:55.900Z,20.57
2023-02-23T03:54:49.168Z,21.07
2023-02-23T03:57:41.420Z,21.07
2023-02-23T04:00:33.722Z,21.53
2023-02-23T04:03:24.674Z,21.33
2023-02-23T04:06:13.550Z,21.03
2023-02-23T04:09:00.014Z,21.90
2023-02-23T04:11:50.193Z,20.50
2023-02-23T04:14:22.041Z,22.90
2023-02-23T04:16:49.617Z,22.83
2023-02-23T04:19:19.426Z,22.27
2023-02-23T04:21:47.822Z,21.80
2023-02-23T04:24:15.872Z,21.20
2023-02-23T04:26:45.637Z,21.63
2023-02-23T04:29:14.419Z,22.23
2023-02-23T04:31:43.938Z,21.97
2023-02-23T04:34:12.261Z,21.30
2023-02-23T04:36:42.885Z,22.50
2023-02-23T04:39:10.900Z,23.23
2023-02-23T04:41:39.018Z,38.37
2023-02-23T04:44:07.414Z,25.50
2023-02-23T04:46:35.626Z,82.40
2023-02-23T04:49:03.938Z,31.70
2023-02-23T04:51:34.213Z,26.60
2023-02-23T04:54:04.220Z,24.00
2023-02-23T04:56:32.794Z,23.97
2023-02-23T04:59:01.623Z,25.23
2023-02-23T05:01:30.638Z,24.87
2023-02-23T05:03:59.058Z,25.43
2023-02-23T05:06:27.689Z,24.07
2023-02-23T05:08:56.097Z,24.70
2023-02-23T05:11:26.754Z,24.57
2023-02-23T05:13:55.095Z,24.20
2023-02-23T05:16:23.908Z,23.10
2023-02-23T05:18:52.327Z,25.53
2023-02-23T05:21:20.806Z,26.40
2023-02-23T05:23:49.430Z,26.63
2023-02-23T05:26:18.294Z,26.33
2023-02-23T05:28:48.105Z,26.33
2023-02-23T05:31:17.729Z,27.13
2023-02-23T05:33:46.607Z,26.10
2023-02-23T05:36:17.234Z,26.27
2023-02-23T05:38:46.514Z,26.13
2023-02-23T05:41:17.014Z,25.90
2023-02-23T05:43:47.618Z,25.20
2023-02-23T05:46:18.513Z,26.53
2023-02-23T05:48:47.655Z,25.83
2023-02-23T05:51:18.017Z,26.03
2023-02-23T05:53:46.873Z,25.37
2023-02-23T05:56:20.628Z,25.67
2023-02-23T05:58:51.419Z,25.47
2023-02-23T06:01:21.190Z,26.90
2023-02-23T06:03:50.181Z,27.57
2023-02-23T06:06:20.471Z,27.83
2023-02-23T06:08:48.765Z,31.77
2023-02-23T06:11:17.503Z,42.73
2023-02-23T06:13:46.264Z,35.90
2023-02-23T06:16:16.019Z,33.43
2023-02-23T06:18:44.246Z,30.03
2023-02-23T06:21:12.627Z,30.00
2023-02-23T06:23:40.710Z,28.70
2023-02-23T06:26:09.039Z,28.07
2023-02-23T06:28:37.427Z,27.73
2023-02-23T06:31:07.076Z,28.20
2023-02-23T06:33:37.448Z,29.60
2023-02-23T06:36:07.003Z,30.30
2023-02-23T06:38:35.660Z,29.93
2023-02-23T06:41:08.702Z,28.77
2023-02-23T06:43:36.933Z,30.47
2023-02-23T06:46:06.437Z,30.30
2023-02-23T06:48:35.748Z,30.57
2023-02-23T06:51:05.514Z,30.47
2023-02-23T06:53:33.788Z,32.13
2023-02-23T06:56:02.188Z,31.07
2023-02-23T06:58:30.738Z,31.00
2023-02-23T07:00:59.794Z,32.87
2023-02-23T07:03:27.946Z,33.60
2023-02-23T07:05:56.454Z,32.97
2023-02-23T07:08:26.451Z,34.00
2023-02-23T07:10:55.161Z,33.87
2023-02-23T07:13:23.554Z,32.60
2023-02-23T07:15:51.965Z,34.30
2023-02-23T07:18:20.467Z,35.13
2023-02-23T07:20:49.067Z,32.97
2023-02-23T07:23:17.391Z,35.43
2023-02-23T07:25:47.403Z,36.27
2023-02-23T07:28:15.651Z,34.83
2023-02-23T07:30:44.051Z,35.40
2023-02-23T07:33:12.192Z,36.60
2023-02-23T07:35:40.521Z,38.10
2023-02-23T07:38:08.581Z,36.20
2023-02-23T07:40:36.841Z,36.33
2023-02-23T07:43:06.793Z,36.47
2023-02-23T07:45:37.321Z,39.27
2023-02-23T07:48:05.681Z,37.00
2023-02-23T07:50:33.819Z,37.27
2023-02-23T07:53:02.204Z,38.27
2023-02-23T07:55:30.592Z,35.47
2023-02-23T07:57:59.303Z,35.37
2023-02-23T08:00:29.538Z,37.80
2023-02-23T08:02:57.991Z,37.23
2023-02-23T08:05:26.794Z,37.00
2023-02-23T08:07:55.021Z,38.43
2023-02-23T08:10:23.290Z,38.70
2023-02-23T08:12:51.504Z,38.83
2023-02-23T08:15:19.990Z,37.03
2023-02-23T08:17:49.908Z,37.70
2023-02-23T08:20:18.473Z,37.13
2023-02-23T08:22:49.767Z,38.57
2023-02-23T08:25:18.779Z,38.47
2023-02-23T08:27:48.104Z,37.10
2023-02-23T08:30:17.336Z,37.00
2023-02-23T08:32:45.698Z,37.90
2023-02-23T08:35:16.451Z,37.67
2023-02-23T08:37:45.569Z,37.43
2023-02-23T08:40:15.652Z,38.13
2023-02-23T08:42:44.126Z,37.67
2023-02-23T08:45:14.685Z,36.20
2023-02-23T08:47:43.382Z,37.00
2023-02-23T08:50:13.776Z,37.73
2023-02-23T08:52:43.951Z,36.73
2023-02-23T08:55:14.192Z,39.77
2023-02-23T08:57:42.420Z,39.50
2023-02-23T09:00:14.505Z,38.43
2023-02-23T09:02:42.975Z,40.33
2023-02-23T09:05:11.932Z,38.93
2023-02-23T09:07:45.227Z,36.77
2023-02-23T09:10:16.417Z,36.53
2023-02-23T09:12:44.899Z,36.30
2023-02-23T09:15:13.952Z,36.47
2023-02-23T09:17:45.144Z,35.90
2023-02-23T09:20:16.106Z,38.03
2023-02-23T09:22:48.954Z,37.17
2023-02-23T09:25:19.549Z,37.00
2023-02-23T09:27:47.796Z,38.67
2023-02-23T09:30:18.040Z,36.30
2023-02-23T09:32:46.799Z,36.97
2023-02-23T09:35:18.086Z,35.60
2023-02-23T09:37:49.104Z,36.40
2023-02-23T09:40:23.493Z,40.50
2023-02-23T09:43:01.078Z,55.80
2023-02-23T09:45:38.779Z,62.17
2023-02-23T09:48:16.841Z,35.90
2023-02-23T09:50:49.149Z,41.60
2023-02-23T09:53:37.248Z,35.63
2023-02-23T09:56:13.894Z,37.20
2023-02-23T09:58:42.604Z,57.63
2023-02-23T10:01:35.534Z,34.73
2023-02-23T10:04:12.193Z,37.83
2023-02-23T10:06:44.854Z,37.80
2023-02-23T10:09:24.416Z,47.93
2023-02-23T10:12:01.126Z,40.50
2023-02-23T10:14:53.406Z,42.13
2023-02-23T10:17:31.082Z,53.77
2023-02-23T10:20:09.207Z,38.17
2023-02-23T10:22:39.002Z,38.77
2023-02-23T10:25:14.954Z,37.93
2023-02-23T10:27:46.863Z,38.57
2023-02-23T10:30:21.078Z,38.93
2023-02-23T10:32:55.485Z,39.87
2023-02-23T10:35:25.381Z,39.30
2023-02-23T10:37:55.954Z,37.57
2023-02-23T10:40:31.110Z,35.60
2023-02-23T10:43:01.342Z,36.33
2023-02-23T10:45:32.403Z,35.87
2023-02-23T10:48:05.535Z,34.83
2023-02-23T10:50:35.721Z,34.20
2023-02-23T10:53:16.627Z,32.93
2023-02-23T10:55:49.048Z,32.03
2023-02-23T10:58:19.180Z,31.33
2023-02-23T11:00:55.927Z,29.67
2023-02-23T11:03:28.810Z,28.43
2023-02-23T11:05:58.572Z,26.03
2023-02-23T11:08:30.819Z,24.67
2023-02-23T11:11:29.004Z,23.50
2023-02-23T11:13:59.014Z,17.87
2023-02-23T11:16:31.027Z,18.43
2023-02-23T11:19:01.892Z,18.20
2023-02-23T11:21:33.884Z,18.30
2023-02-23T11:24:14.591Z,18.27
2023-02-23T11:26:46.019Z,15.27
2023-02-23T11:29:22.220Z,15.80
2023-02-23T11:31:53.945Z,13.80
2023-02-23T11:34:30.342Z,13.40
2023-02-23T11:37:05.787Z,14.00
2023-02-23T11:39:36.006Z,12.40
2023-02-23T11:42:19.559Z,12.70
2023-02-23T11:45:06.996Z,14.03
2023-02-23T11:47:41.326Z,14.03
2023-02-23T11:50:24.056Z,14.47
2023-02-23T11:52:57.087Z,13.70
2023-02-23T11:55:26.231Z,15.23
2023-02-23T11:58:10.334Z,13.50
2023-02-23T12:00:40.488Z,12.30
2023-02-23T12:03:09.123Z,12.93
2023-02-23T12:05:38.544Z,13.37
2023-02-23T12:08:15.308Z,12.93
2023-02-23T12:10:45.470Z,11.70
2023-02-23T12:13:27.177Z,13.37
2023-02-23T12:16:04.199Z,12.73
2023-02-23T12:18:43.195Z,11.83
2023-02-23T12:21:26.578Z,11.30
2023-02-23T12:24:07.256Z,12.23
2023-02-23T12:26:43.709Z,11.63
2023-02-23T12:29:30.579Z,11.93
2023-02-23T12:32:06.746Z,12.00
2023-02-23T12:34:44.393Z,11.67
2023-02-23T12:37:29.450Z,11.60
2023-02-23T12:40:04.322Z,11.43
2023-02-23T12:42:42.602Z,12.50
2023-02-23T12:45:22.478Z,12.53
2023-02-23T12:47:57.702Z,11.07
2023-02-23T12:50:30.581Z,11.23
2023-02-23T12:53:01.652Z,11.67
2023-02-23T12:55:38.571Z,10.80
2023-02-23T12:58:16.542Z,10.77
2023-02-23T13:00:54.291Z,11.67
2023-02-23T13:04:02.853Z,12.30
2023-02-23T13:06:38.241Z,12.13
2023-02-23T13:09:20.228Z,11.20
2023-02-23T13:12:02.247Z,11.07
2023-02-23T13:14:39.454Z,11.33
2023-02-23T13:17:22.764Z,10.90
2023-02-23T13:19:55.587Z,11.37
2023-02-23T13:22:33.850Z,11.17
2023-02-23T13:25:21.905Z,10.77
2023-02-23T13:27:54.223Z,11.33
2023-02-23T13:30:24.264Z,11.03
2023-02-23T13:32:55.815Z,11.97
2023-02-23T13:35:26.647Z,11.37
2023-02-23T13:37:59.850Z,12.33
2023-02-23T13:40:35.838Z,12.40
2023-02-23T13:43:17.872Z,11.97
2023-02-23T13:45:57.137Z,12.73
2023-02-23T13:48:41.818Z,11.90
2023-02-23T13:51:27.131Z,13.23
2023-02-23T13:54:02.604Z,12.30
2023-02-23T13:56:33.128Z,13.00
2023-02-23T13:59:03.507Z,12.60
2023-02-23T14:01:34.306Z,13.47
2023-02-23T14:04:08.236Z,13.17
2023-02-23T14:06:37.787Z,13.60
2023-02-23T14:09:11.495Z,13.03
2023-02-23T14:12:03.543Z,13.83
2023-02-23T14:14:44.472Z,13.10
2023-02-23T14:17:32.961Z,13.33
2023-02-23T14:20:24.386Z,12.77
2023-02-23T14:23:29.791Z,12.87
2023-02-23T14:26:19.772Z,12.97
2023-02-23T14:28:50.827Z,12.00
2023-02-23T14:31:26.092Z,12.97
2023-02-23T14:34:03.509Z,12.47
2023-02-23T14:36:48.114Z,12.43
2023-02-23T14:39:24.569Z,12.57
2023-02-23T14:41:56.183Z,12.80
2023-02-23T14:44:31.133Z,12.47
2023-02-23T14:47:04.343Z,11.97
2023-02-23T14:49:37.204Z,13.00
2023-02-23T14:52:15.769Z,13.20
2023-02-23T14:54:43.885Z,13.17
2023-02-23T14:57:19.917Z,13.37
2023-02-23T14:59:54.637Z,13.60
2023-02-23T15:02:25.544Z,13.20
2023-02-23T15:04:53.989Z,13.53
2023-02-23T15:07:32.339Z,14.13
2023-02-23T15:10:02.721Z,14.37
2023-02-23T15:12:36.075Z,14.83
2023-02-23T15:15:10.567Z,14.83
2023-02-23T15:17:42.066Z,14.73
2023-02-23T15:20:17.326Z,14.00
2023-02-23T15:22:50.221Z,14.37
2023-02-23T15:25:21.356Z,14.20
2023-02-23T15:27:52.057Z,13.83
2023-02-23T15:30:27.992Z,15.40
2023-02-23T15:33:04.001Z,15.93
2023-02-23T15:35:34.168Z,15.70
2023-02-23T15:38:18.063Z,16.20
2023-02-23T15:40:57.279Z,16.77
2023-02-23T15:43:25.914Z,16.60
2023-02-23T15:45:55.997Z,17.00
2023-02-23T15:48:30.420Z,16.83
2023-02-23T15:50:59.634Z,16.63
2023-02-23T15:53:36.093Z,16.73
2023-02-23T15:56:12.800Z,16.53
2023-02-23T15:58:55.969Z,17.50
2023-02-23T16:01:27.350Z,19.10
2023-02-23T16:04:03.236Z,18.17
2023-02-23T16:06:39.788Z,16.03
2023-02-23T16:09:22.179Z,15.33
2023-02-23T16:11:53.064Z,14.37
2023-02-23T16:14:23.987Z,14.40
2023-02-23T16:17:09.877Z,13.17
2023-02-23T16:19:41.916Z,13.37
2023-02-23T16:22:21.624Z,13.50
2023-02-23T16:25:02.220Z,14.67
2023-02-23T16:27:31.559Z,12.53
2023-02-23T16:30:06.949Z,11.87
2023-02-23T16:32:40.056Z,12.10
2023-02-23T16:35:17.307Z,11.67
2023-02-23T16:38:00.180Z,11.50
2023-02-23T16:40:33.361Z,11.37
2023-02-23T16:43:01.825Z,11.20
2023-02-23T16:45:30.774Z,11.30
2023-02-23T16:48:03.262Z,10.80
2023-02-23T16:50:33.851Z,11.13
2023-02-23T16:53:03.660Z,10.93
2023-02-23T16:55:40.106Z,10.43
2023-02-23T16:58:18.403Z,10.40
2023-02-23T17:00:52.002Z,10.33
2023-02-23T17:03:24.578Z,10.70
2023-02-23T17:05:53.641Z,9.90
2023-02-23T17:08:22.309Z,10.30
2023-02-23T17:10:54.835Z,10.23
2023-02-23T17:13:25.205Z,10.43
2023-02-23T17:15:56.548Z,10.87
2023-02-23T17:18:26.688Z,10.60
2023-02-23T17:20:57.246Z,10.40
2023-02-23T17:23:27.284Z,10.47
2023-02-23T17:25:58.700Z,11.07
2023-02-23T17:28:28.678Z,10.90
2023-02-23T17:30:59.537Z,11.50
2023-02-23T17:33:28.237Z,11.97
2023-02-23T17:35:56.449Z,11.60
2023-02-23T17:38:33.971Z,11.53
2023-02-23T17:41:05.231Z,11.63
2023-02-23T17:43:34.931Z,11.20
2023-02-23T17:46:03.338Z,10.30
2023-02-23T17:48:34.712Z,11.40
2023-02-23T17:51:04.961Z,10.70
2023-02-23T17:53:34.330Z,10.47
2023-02-23T17:56:04.244Z,12.00
2023-02-23T17:58:32.581Z,11.60
2023-02-23T18:01:03.100Z,11.43
2023-02-23T18:03:33.464Z,12.40
2023-02-23T18:06:03.273Z,11.80
2023-02-23T18:08:32.365Z,13.13
2023-02-23T18:11:01.363Z,12.70
2023-02-23T18:13:33.837Z,13.57
2023-02-23T18:16:04.638Z,13.97
2023-02-23T18:18:33.964Z,14.20
2023-02-23T18:21:03.117Z,13.50
2023-02-23T18:23:33.770Z,15.13
2023-02-23T18:26:07.617Z,15.23
2023-02-23T18:28:41.237Z,16.23
2023-02-23T18:31:09.775Z,14.70
2023-02-23T18:33:41.193Z,16.20
2023-02-23T18:36:17.896Z,17.00
2023-02-23T18:38:46.231Z,16.00
2023-02-23T18:41:14.534Z,16.37
2023-02-23T18:43:44.298Z,16.37
2023-02-23T18:46:13.923Z,16.57
2023-02-23T18:48:42.566Z,16.93
2023-02-23T18:51:14.779Z,16.23
2023-02-23T18:53:44.743Z,16.37
2023-02-23T18:56:15.127Z,16.77
2023-02-23T18:58:46.454Z,16.13
2023-02-23T19:01:20.889Z,16.17
2023-02-23T19:03:50.193Z,16.50
2023-02-23T19:06:18.786Z,16.83
2023-02-23T19:08:54.081Z,17.80
2023-02-23T19:11:24.908Z,17.73
2023-02-23T19:13:55.223Z,18.70
2023-02-23T19:16:26.598Z,18.77
2023-02-23T19:18:56.333Z,18.93
2023-02-23T19:21:24.658Z,18.93
2023-02-23T19:23:53.796Z,19.17
2023-02-23T19:26:22.956Z,20.57
2023-02-23T19:28:51.375Z,19.63
2023-02-23T19:31:23.405Z,19.47
2023-02-23T19:33:52.351Z,20.53
2023-02-23T19:36:23.624Z,20.63
2023-02-23T19:38:52.082Z,21.87
2023-02-23T19:41:22.077Z,21.47
2023-02-23T19:43:51.396Z,21.17
2023-02-23T19:46:23.121Z,21.73
2023-02-23T19:48:52.116Z,22.33
2023-02-23T19:51:21.171Z,22.00
2023-02-23T19:53:49.749Z,22.93
2023-02-23T19:56:18.727Z,21.60
2023-02-23T19:58:48.753Z,22.97
2023-02-23T20:01:19.228Z,22.43
2023-02-23T20:03:55.682Z,25.67
2023-02-23T20:06:26.209Z,24.30
2023-02-23T20:08:55.419Z,23.40
2023-02-23T20:11:24.362Z,23.63
2023-02-23T20:13:53.158Z,24.07
2023-02-23T20:16:29.891Z,24.00
2023-02-23T20:19:01.409Z,24.50
2023-02-23T20:21:32.654Z,23.67
2023-02-23T20:24:01.800Z,24.27
2023-02-23T20:26:34.626Z,23.70
2023-02-23T20:29:03.447Z,24.80
2023-02-23T20:31:36.264Z,24.40
2023-02-23T20:34:08.034Z,25.50
2023-02-23T20:36:38.511Z,24.73
2023-02-23T20:39:07.117Z,25.37
2023-02-23T20:41:35.848Z,24.80
2023-02-23T20:44:04.467Z,24.07
2023-02-23T20:46:32.895Z,25.43
2023-02-23T20:49:03.736Z,25.80
2023-02-23T20:51:37.540Z,25.93
2023-02-23T20:54:06.541Z,23.77
2023-02-23T20:56:35.568Z,22.90
2023-02-23T20:59:05.525Z,21.93
2023-02-23T21:01:34.405Z,22.77
2023-02-23T21:04:03.017Z,22.37
2023-02-23T21:06:34.793Z,22.13
2023-02-23T21:09:17.157Z,21.73
2023-02-23T21:11:46.532Z,21.13
2023-02-23T21:14:14.748Z,21.50
2023-02-23T21:16:45.484Z,20.93
2023-02-23T21:19:14.520Z,21.80
2023-02-23T21:21:47.156Z,21.40
2023-02-23T21:24:17.778Z,21.13
2023-02-23T21:26:46.710Z,20.47
2023-02-23T21:29:17.119Z,20.60
2023-02-23T21:31:46.502Z,19.30
2023-02-23T21:34:15.738Z,20.50
2023-02-23T21:36:45.538Z,19.57
2023-02-23T21:39:14.268Z,19.03
2023-02-23T21:41:42.719Z,18.47
2023-02-23T21:44:11.116Z,20.03
2023-02-23T21:46:40.606Z,18.17
2023-02-23T21:49:10.016Z,18.17
2023-02-23T21:51:38.741Z,16.93
2023-02-23T21:54:08.904Z,17.30
2023-02-23T21:56:37.717Z,17.97
2023-02-23T21:59:09.521Z,18.07
2023-02-23T22:01:40.938Z,17.00
2023-02-23T22:04:12.987Z,17.50
2023-02-23T22:06:43.382Z,17.30
2023-02-23T22:09:15.993Z,18.07
2023-02-23T22:11:47.923Z,17.73
2023-02-23T22:14:18.180Z,18.50
2023-02-23T22:16:47.870Z,17.47
2023-02-23T22:19:16.843Z,17.37
2023-02-23T22:21:48.042Z,17.80
2023-02-23T22:24:19.041Z,17.37
2023-02-23T22:26:54.032Z,18.67
2023-02-23T22:29:23.514Z,18.30
2023-02-23T22:31:53.195Z,17.93
2023-02-23T22:34:22.272Z,15.90
2023-02-23T22:36:50.677Z,15.63
2023-02-23T22:39:20.446Z,15.40
2023-02-23T22:41:48.881Z,15.47
2023-02-23T22:44:21.472Z,14.30
2023-02-23T22:46:50.125Z,14.43
2023-02-23T22:49:20.311Z,14.83
2023-02-23T22:51:50.607Z,14.87
2023-02-23T22:54:21.335Z,15.10
2023-02-23T22:56:49.729Z,14.43
2023-02-23T22:59:20.768Z,15.17
2023-02-23T23:01:50.527Z,16.00
2023-02-23T23:04:22.128Z,16.03
2023-02-23T23:06:51.061Z,16.13
2023-02-23T23:09:21.381Z,17.13
2023-02-23T23:11:51.570Z,17.10
2023-02-23T23:14:20.753Z,17.23
2023-02-23T23:16:49.922Z,16.70
2023-02-23T23:19:24.356Z,16.43
2023-02-23T23:21:55.471Z,15.90
2023-02-23T23:24:26.625Z,16.70
2023-02-23T23:26:59.572Z,15.73
2023-02-23T23:29:29.844Z,14.77
2023-02-23T23:31:58.370Z,14.60
2023-02-23T23:34:28.242Z,15.73
2023-02-23T23:36:56.964Z,14.43
2023-02-23T23:39:29.508Z,14.17
2023-02-23T23:41:57.731Z,14.00
2023-02-23T23:44:29.664Z,14.67
2023-02-23T23:46:59.801Z,13.90
2023-02-23T23:49:29.798Z,15.30
2023-02-23T23:51:59.185Z,14.50
2023-02-23T23:54:34.108Z,14.00
2023-02-23T23:57:03.055Z,13.50
2023-02-23T23:59:31.995Z,13.33
